This is the latest recevied weather packets stored in our database for station/object VK4AB-13. If no packets are shown the sender has not sent any weather packets the latest 10 day(s).
| Time | Temp. | Humidity | Pressure | Rain* | Wind** | Luminosity | Snow |
|---|---|---|---|---|---|---|---|
| 1777859629 | 26.11° C | 63% | 1016.9 hPa | 0 mm | - | 128 W/m² | - |
| 1777859377 | 27.22° C | 61% | 1017.2 hPa | 0 mm | - | 185 W/m² | - |
| 1777859329 | 26.11° C | 63% | 1017 hPa | 0 mm | - | 265 W/m² | - |
| 1777859029 | 26.67° C | 62% | 1017 hPa | 0 mm | - | 221 W/m² | - |
| 1777858729 | 27.22° C | 61% | 1017.2 hPa | 0 mm | - | 185 W/m² | - |
| 1777858474 | 27.22° C | 61% | 1017.3 hPa | 0 mm | - | 172 W/m² | - |
| 1777858429 | 27.22° C | 61% | 1017.3 hPa | 0 mm | - | 172 W/m² | - |
| 1777858129 | 27.22° C | 62% | 1017.4 hPa | 0 mm | - | 833 W/m² | - |
| 1777857876 | 26.67° C | 63% | 1017.6 hPa | 0 mm | - | 183 W/m² | - |
| 1777857829 | 27.22° C | 62% | 1017.4 hPa | 0 mm | - | 828 W/m² | - |
| 1777857529 | 26.67° C | 62% | 1017.5 hPa | 0 mm | - | 795 W/m² | - |
| 1777857229 | 26.67° C | 63% | 1017.6 hPa | 0 mm | - | 183 W/m² | - |
| 1777857046 | 26.67° C | 63% | 1017.7 hPa | 0 mm | - | 153 W/m² | - |
| 1777856929 | 26.67° C | 63% | 1017.7 hPa | 0 mm | - | 153 W/m² | - |
| 1777856629 | 26.67° C | 64% | 1017.8 hPa | 0 mm | - | 135 W/m² | - |
| 1777856329 | 26.67° C | 64% | 1017.9 hPa | 0 mm | - | 747 W/m² | - |
| 1777856029 | 26.67° C | 65% | 1017.9 hPa | 0 mm | - | 696 W/m² | - |
| 1777855729 | 26.67° C | 64% | 1018 hPa | 0 mm | - | 686 W/m² | - |
| 1777855718 | 26.67° C | 65% | 1018.1 hPa | 0 mm | - | 686 W/m² | - |
| 1777855429 | 26.67° C | 65% | 1018.1 hPa | 0 mm | - | 686 W/m² | - |
| 1777855129 | 26.67° C | 66% | 1018.2 hPa | 0 mm | - | 701 W/m² | - |
| 1777854829 | 26.11° C | 69% | 1018.2 hPa | 0 mm | - | 666 W/m² | - |
| 1777854529 | 25.56° C | 69% | 1018.3 hPa | 0 mm | - | 650 W/m² | - |
| 1777854229 | 25.56° C | 69% | 1018.3 hPa | 0 mm | - | 631 W/m² | - |
| 1777853930 | 25.56° C | 70% | 1018.4 hPa | 0 mm | - | 615 W/m² | - |
* Rain latest hour (hover to see other rain measurements)
** Current wind speed in m/s (hover to see current wind gust speed)